createdAt,value
2023-03-23T15:59:21.567Z,20.40
2023-03-23T16:02:24.178Z,20.30
2023-03-23T16:05:18.640Z,20.30
2023-03-23T16:08:14.095Z,20.40
2023-03-23T16:11:12.818Z,20.40
2023-03-23T16:14:06.920Z,20.50
2023-03-23T16:17:01.346Z,20.50
2023-03-23T16:19:55.535Z,20.50
2023-03-23T16:22:50.499Z,20.50
2023-03-23T16:25:45.060Z,20.50
2023-03-23T16:28:39.922Z,20.50
2023-03-23T16:31:34.032Z,20.50
2023-03-23T16:34:30.333Z,20.50
2023-03-23T16:37:24.498Z,20.50
2023-03-23T16:40:20.575Z,20.50
2023-03-23T16:43:15.070Z,20.50
2023-03-23T16:46:09.457Z,20.50
2023-03-23T16:49:03.728Z,20.50
2023-03-23T16:51:57.939Z,20.40
2023-03-23T16:54:52.602Z,20.40
2023-03-23T16:57:47.360Z,20.40
2023-03-23T17:00:41.956Z,20.40
2023-03-23T17:03:36.597Z,20.40
2023-03-23T17:06:30.795Z,20.50
2023-03-23T17:09:25.118Z,20.40
2023-03-23T17:12:19.696Z,20.40
2023-03-23T17:15:14.570Z,20.40
2023-03-23T17:18:09.425Z,20.40
2023-03-23T17:21:03.732Z,20.40
2023-03-23T17:23:57.894Z,20.40
2023-03-23T17:26:52.073Z,20.40
2023-03-23T17:29:47.053Z,20.40
2023-03-23T17:32:41.824Z,20.30
2023-03-23T17:35:35.922Z,20.30
2023-03-23T17:38:30.399Z,20.20
2023-03-23T17:41:24.495Z,20.20
2023-03-23T17:44:18.806Z,20.20
2023-03-23T17:47:13.575Z,20.20
2023-03-23T17:50:11.513Z,20.20
2023-03-23T17:53:06.739Z,20.10
2023-03-23T17:56:01.014Z,20.00
2023-03-23T17:58:55.216Z,20.10
2023-03-23T18:01:50.037Z,20.10
2023-03-23T18:04:44.212Z,20.10
2023-03-23T18:07:38.987Z,20.10
2023-03-23T18:10:33.314Z,20.10
2023-03-23T18:13:28.972Z,20.10
2023-03-23T18:16:23.217Z,20.10
2023-03-23T18:19:17.856Z,20.10
2023-03-23T18:22:12.022Z,20.10
2023-03-23T18:25:06.935Z,20.10
2023-03-23T18:28:05.511Z,20.10
2023-03-23T18:31:18.149Z,20.10
2023-03-23T18:34:12.261Z,20.10
2023-03-23T18:37:07.015Z,20.10
2023-03-23T18:40:05.602Z,20.10
2023-03-23T18:43:00.352Z,20.00
2023-03-23T18:45:57.253Z,20.00
2023-03-23T18:48:51.503Z,20.00
2023-03-23T18:51:45.651Z,20.00
2023-03-23T18:54:41.810Z,20.00
2023-03-23T18:57:36.013Z,20.00
2023-03-23T19:00:30.825Z,19.90
2023-03-23T19:03:25.128Z,19.90
2023-03-23T19:06:28.559Z,19.90
2023-03-23T19:09:23.301Z,19.90
2023-03-23T19:12:17.667Z,19.80
2023-03-23T19:15:12.068Z,19.80
2023-03-23T19:18:06.885Z,19.80
2023-03-23T19:23:59.627Z,19.70
2023-03-23T19:26:53.935Z,19.70
2023-03-23T19:29:48.650Z,19.70
2023-03-23T19:32:43.019Z,19.60
2023-03-23T19:35:37.426Z,19.60
2023-03-23T19:38:31.845Z,19.60
2023-03-23T19:41:27.698Z,19.60
2023-03-23T19:44:22.934Z,19.60
2023-03-23T19:47:17.202Z,19.50
2023-03-23T19:50:11.425Z,19.60
2023-03-23T19:53:05.984Z,19.50
2023-03-23T19:56:01.361Z,19.50
2023-03-23T19:58:57.244Z,19.40
2023-03-23T20:01:51.756Z,19.40
2023-03-23T20:04:46.437Z,19.40
2023-03-23T20:07:42.108Z,19.40
2023-03-23T20:10:41.949Z,19.30
2023-03-23T20:13:36.645Z,19.30
2023-03-23T20:16:31.324Z,19.20
2023-03-23T20:19:25.582Z,19.30
2023-03-23T20:22:20.721Z,19.20
2023-03-23T20:25:15.582Z,19.20
2023-03-23T20:28:10.054Z,19.20
2023-03-23T20:31:16.900Z,19.20
2023-03-23T20:34:18.318Z,19.20
2023-03-23T20:37:17.106Z,19.10
2023-03-23T20:40:15.491Z,19.10
2023-03-23T20:43:10.887Z,19.10
2023-03-23T20:46:07.328Z,19.10
2023-03-23T20:49:02.253Z,19.00
2023-03-23T20:51:59.972Z,19.00
2023-03-23T20:54:56.091Z,19.00
2023-03-23T20:57:50.656Z,19.00
2023-03-23T21:00:45.659Z,19.00
2023-03-23T21:03:42.645Z,19.00
2023-03-23T21:06:38.427Z,18.90
2023-03-23T21:09:33.385Z,18.90
2023-03-23T21:12:28.394Z,18.90
2023-03-23T21:15:22.773Z,18.80
2023-03-23T21:18:17.338Z,18.80
2023-03-23T21:21:12.786Z,18.80
2023-03-23T21:24:07.198Z,18.90
2023-03-23T21:27:04.758Z,18.90
2023-03-23T21:30:02.383Z,18.90
2023-03-23T21:32:56.863Z,18.90
2023-03-23T21:35:51.090Z,18.90
2023-03-23T21:38:46.043Z,18.90
2023-03-23T21:41:41.965Z,18.90
2023-03-23T21:44:37.361Z,19.00
2023-03-23T21:47:32.580Z,19.00
2023-03-23T21:50:26.736Z,19.10
2023-03-23T21:53:21.631Z,19.10
2023-03-23T21:56:16.842Z,19.20
2023-03-23T21:59:11.061Z,19.20
2023-03-23T22:02:05.330Z,19.20
2023-03-23T22:04:59.607Z,19.30
2023-03-23T22:07:55.461Z,19.40
2023-03-23T22:11:00.955Z,19.40
2023-03-23T22:13:57.813Z,19.40
2023-03-23T22:16:52.087Z,19.60
2023-03-23T22:19:46.314Z,19.60
2023-03-23T22:22:41.794Z,19.70
2023-03-23T22:25:37.530Z,19.70
2023-03-23T22:28:33.580Z,19.80
2023-03-23T22:31:31.276Z,19.90
2023-03-23T22:34:25.450Z,20.00
2023-03-23T22:37:20.215Z,20.20
2023-03-23T22:40:14.647Z,20.30
2023-03-23T22:43:10.067Z,20.40
2023-03-23T22:46:05.128Z,20.50
2023-03-23T22:48:59.414Z,20.60
2023-03-23T22:51:53.593Z,20.80
2023-03-23T22:54:49.215Z,21.00
2023-03-23T22:57:43.379Z,21.20
2023-03-23T23:00:39.503Z,21.40
2023-03-23T23:03:35.107Z,21.70
2023-03-23T23:06:29.408Z,22.10
2023-03-23T23:09:23.621Z,22.40
2023-03-23T23:12:19.591Z,22.80
2023-03-23T23:15:15.996Z,22.90
2023-03-23T23:18:10.204Z,23.10
2023-03-23T23:21:11.197Z,23.10
2023-03-23T23:24:06.032Z,23.00
2023-03-23T23:27:00.279Z,22.90
2023-03-23T23:29:54.433Z,22.80
2023-03-23T23:32:48.921Z,22.70
2023-03-23T23:35:43.895Z,22.60
2023-03-23T23:38:38.029Z,22.60
2023-03-23T23:41:32.903Z,22.60
2023-03-23T23:44:27.130Z,22.70
2023-03-23T23:47:21.302Z,22.80
2023-03-23T23:50:16.218Z,22.80
2023-03-23T23:53:12.115Z,22.90
2023-03-23T23:56:07.762Z,22.90
2023-03-23T23:59:01.911Z,22.80
